sensor_id;sensor_type;location;lat;lon;timestamp;pressure;altitude;pressure_sealevel;temperature;humidity
44351;BME280;62766;62.622;17.912;2022-10-16T00:01:28;100123.70;;;4.03;66.97
44351;BME280;62766;62.622;17.912;2022-10-16T00:03:59;100121.18;;;3.97;67.28
44351;BME280;62766;62.622;17.912;2022-10-16T00:06:29;100111.29;;;4.00;67.72
44351;BME280;62766;62.622;17.912;2022-10-16T00:08:58;100101.49;;;3.97;67.55
44351;BME280;62766;62.622;17.912;2022-10-16T00:11:28;100097.98;;;4.05;68.18
44351;BME280;62766;62.622;17.912;2022-10-16T00:14:00;100091.05;;;3.86;68.01
44351;BME280;62766;62.622;17.912;2022-10-16T00:16:28;100088.93;;;3.87;68.11
44351;BME280;62766;62.622;17.912;2022-10-16T00:18:58;100088.85;;;3.96;68.22
44351;BME280;62766;62.622;17.912;2022-10-16T00:21:28;100092.00;;;3.93;67.95
44351;BME280;62766;62.622;17.912;2022-10-16T00:24:01;100095.33;;;4.06;67.25
44351;BME280;62766;62.622;17.912;2022-10-16T00:26:32;100090.54;;;4.04;67.54
44351;BME280;62766;62.622;17.912;2022-10-16T00:29:00;100088.96;;;4.06;67.28
44351;BME280;62766;62.622;17.912;2022-10-16T00:31:29;100083.46;;;4.02;66.93
44351;BME280;62766;62.622;17.912;2022-10-16T00:33:58;100081.42;;;3.81;66.30
44351;BME280;62766;62.622;17.912;2022-10-16T00:36:26;100086.51;;;3.90;66.47
44351;BME280;62766;62.622;17.912;2022-10-16T00:38:56;100085.12;;;3.89;66.86
44351;BME280;62766;62.622;17.912;2022-10-16T00:41:25;100084.76;;;3.87;67.50
44351;BME280;62766;62.622;17.912;2022-10-16T00:43:55;100082.34;;;3.84;67.61
44351;BME280;62766;62.622;17.912;2022-10-16T00:46:25;100081.04;;;3.99;68.10
44351;BME280;62766;62.622;17.912;2022-10-16T00:48:57;100084.46;;;4.12;68.56
44351;BME280;62766;62.622;17.912;2022-10-16T00:51:33;100088.43;;;4.05;67.57
44351;BME280;62766;62.622;17.912;2022-10-16T00:54:03;100089.14;;;3.91;67.82
44351;BME280;62766;62.622;17.912;2022-10-16T00:56:32;100087.62;;;4.03;68.36
44351;BME280;62766;62.622;17.912;2022-10-16T00:59:03;100089.91;;;3.98;68.24
44351;BME280;62766;62.622;17.912;2022-10-16T01:01:34;100088.38;;;4.06;67.47
44351;BME280;62766;62.622;17.912;2022-10-16T01:04:02;100085.01;;;3.91;67.96
44351;BME280;62766;62.622;17.912;2022-10-16T01:06:37;100084.79;;;4.10;68.63
44351;BME280;62766;62.622;17.912;2022-10-16T01:09:15;100083.56;;;3.86;68.57
44351;BME280;62766;62.622;17.912;2022-10-16T01:11:53;100079.70;;;4.00;68.29
44351;BME280;62766;62.622;17.912;2022-10-16T01:14:27;100075.63;;;4.02;68.29
44351;BME280;62766;62.622;17.912;2022-10-16T01:17:05;100070.19;;;3.87;67.77
44351;BME280;62766;62.622;17.912;2022-10-16T01:19:48;100073.82;;;4.01;67.59
44351;BME280;62766;62.622;17.912;2022-10-16T01:22:20;100078.21;;;3.91;67.42
44351;BME280;62766;62.622;17.912;2022-10-16T01:24:52;100081.35;;;3.90;67.10
44351;BME280;62766;62.622;17.912;2022-10-16T01:27:23;100076.20;;;3.87;66.95
44351;BME280;62766;62.622;17.912;2022-10-16T01:29:58;100057.13;;;3.83;67.78
44351;BME280;62766;62.622;17.912;2022-10-16T01:32:33;100047.17;;;3.75;68.29
44351;BME280;62766;62.622;17.912;2022-10-16T01:35:08;100041.44;;;3.58;68.50
44351;BME280;62766;62.622;17.912;2022-10-16T01:37:43;100038.15;;;3.61;68.89
44351;BME280;62766;62.622;17.912;2022-10-16T01:40:17;100031.59;;;3.76;68.77
44351;BME280;62766;62.622;17.912;2022-10-16T01:42:52;100033.23;;;3.92;68.27
44351;BME280;62766;62.622;17.912;2022-10-16T01:45:21;100019.00;;;3.91;68.40
44351;BME280;62766;62.622;17.912;2022-10-16T01:47:51;100011.76;;;3.84;68.98
44351;BME280;62766;62.622;17.912;2022-10-16T01:50:22;100008.89;;;3.99;68.87
44351;BME280;62766;62.622;17.912;2022-10-16T01:52:54;99996.65;;;3.97;67.55
44351;BME280;62766;62.622;17.912;2022-10-16T01:55:29;99993.17;;;3.98;67.16
44351;BME280;62766;62.622;17.912;2022-10-16T01:58:02;99998.73;;;3.99;67.12
44351;BME280;62766;62.622;17.912;2022-10-16T02:00:32;99991.54;;;3.93;67.20
44351;BME280;62766;62.622;17.912;2022-10-16T02:03:04;99983.72;;;3.85;67.19
44351;BME280;62766;62.622;17.912;2022-10-16T02:05:40;99971.32;;;3.77;67.60
44351;BME280;62766;62.622;17.912;2022-10-16T02:08:10;99962.44;;;3.78;68.13
44351;BME280;62766;62.622;17.912;2022-10-16T02:10:38;99954.75;;;3.64;68.28
44351;BME280;62766;62.622;17.912;2022-10-16T02:13:10;99946.71;;;3.62;67.99
44351;BME280;62766;62.622;17.912;2022-10-16T02:15:40;99939.15;;;3.56;67.45
44351;BME280;62766;62.622;17.912;2022-10-16T02:18:09;99946.32;;;3.55;67.42
44351;BME280;62766;62.622;17.912;2022-10-16T02:20:45;99946.44;;;3.56;67.56
44351;BME280;62766;62.622;17.912;2022-10-16T02:23:24;99929.82;;;3.54;68.03
44351;BME280;62766;62.622;17.912;2022-10-16T02:25:58;99939.94;;;3.59;68.37
44351;BME280;62766;62.622;17.912;2022-10-16T02:28:35;99943.95;;;3.61;68.41
44351;BME280;62766;62.622;17.912;2022-10-16T02:31:08;99938.15;;;3.56;69.00
44351;BME280;62766;62.622;17.912;2022-10-16T02:33:38;99930.93;;;3.77;69.71
44351;BME280;62766;62.622;17.912;2022-10-16T02:36:09;99926.79;;;3.63;69.59
44351;BME280;62766;62.622;17.912;2022-10-16T02:38:39;99928.06;;;3.65;69.88
44351;BME280;62766;62.622;17.912;2022-10-16T02:41:09;99916.93;;;3.65;70.33
44351;BME280;62766;62.622;17.912;2022-10-16T02:43:37;99913.70;;;3.75;70.84
44351;BME280;62766;62.622;17.912;2022-10-16T02:46:06;99912.10;;;3.80;70.93
44351;BME280;62766;62.622;17.912;2022-10-16T02:48:34;99899.64;;;3.88;71.49
44351;BME280;62766;62.622;17.912;2022-10-16T02:51:03;99886.95;;;3.75;72.19
44351;BME280;62766;62.622;17.912;2022-10-16T02:53:31;99880.13;;;3.75;72.38
44351;BME280;62766;62.622;17.912;2022-10-16T02:55:59;99879.95;;;3.77;72.17
44351;BME280;62766;62.622;17.912;2022-10-16T02:58:28;99883.95;;;3.88;72.33
44351;BME280;62766;62.622;17.912;2022-10-16T03:00:56;99893.04;;;3.94;72.10
44351;BME280;62766;62.622;17.912;2022-10-16T03:03:24;99892.57;;;4.11;71.82
44351;BME280;62766;62.622;17.912;2022-10-16T03:05:53;99886.33;;;4.07;71.79
44351;BME280;62766;62.622;17.912;2022-10-16T03:08:23;99877.73;;;4.12;72.05
44351;BME280;62766;62.622;17.912;2022-10-16T03:10:51;99871.18;;;4.20;72.21
44351;BME280;62766;62.622;17.912;2022-10-16T03:13:20;99867.17;;;4.23;71.96
44351;BME280;62766;62.622;17.912;2022-10-16T03:15:48;99872.25;;;4.38;72.02
44351;BME280;62766;62.622;17.912;2022-10-16T03:18:16;99865.62;;;4.33;72.08
44351;BME280;62766;62.622;17.912;2022-10-16T03:20:44;99861.03;;;4.16;72.21
44351;BME280;62766;62.622;17.912;2022-10-16T03:23:13;99865.94;;;4.15;72.42
44351;BME280;62766;62.622;17.912;2022-10-16T03:25:41;99872.23;;;4.18;72.96
44351;BME280;62766;62.622;17.912;2022-10-16T03:28:10;99866.96;;;4.15;73.23
44351;BME280;62766;62.622;17.912;2022-10-16T03:30:38;99860.01;;;4.10;73.69
44351;BME280;62766;62.622;17.912;2022-10-16T03:33:06;99854.12;;;4.30;74.14
44351;BME280;62766;62.622;17.912;2022-10-16T03:35:35;99863.24;;;4.29;74.11
44351;BME280;62766;62.622;17.912;2022-10-16T03:38:03;99859.34;;;4.33;74.17
44351;BME280;62766;62.622;17.912;2022-10-16T03:40:31;99840.79;;;4.49;73.90
44351;BME280;62766;62.622;17.912;2022-10-16T03:43:00;99828.80;;;4.29;73.92
44351;BME280;62766;62.622;17.912;2022-10-16T03:45:28;99811.73;;;4.41;74.05
44351;BME280;62766;62.622;17.912;2022-10-16T03:47:56;99800.74;;;4.38;74.18
44351;BME280;62766;62.622;17.912;2022-10-16T03:50:25;99793.28;;;4.42;74.19
44351;BME280;62766;62.622;17.912;2022-10-16T03:52:54;99789.91;;;4.32;74.05
44351;BME280;62766;62.622;17.912;2022-10-16T03:55:23;99798.43;;;4.41;74.15
44351;BME280;62766;62.622;17.912;2022-10-16T03:57:52;99803.35;;;4.50;74.08
44351;BME280;62766;62.622;17.912;2022-10-16T04:03:20;99790.58;;;4.59;74.10
44351;BME280;62766;62.622;17.912;2022-10-16T04:05:48;99773.40;;;4.55;73.97
44351;BME280;62766;62.622;17.912;2022-10-16T04:08:17;99762.84;;;4.57;74.11
44351;BME280;62766;62.622;17.912;2022-10-16T04:10:45;99760.35;;;4.63;74.16
44351;BME280;62766;62.622;17.912;2022-10-16T04:13:15;99754.09;;;4.82;73.93
44351;BME280;62766;62.622;17.912;2022-10-16T04:15:45;99727.34;;;4.79;73.48
44351;BME280;62766;62.622;17.912;2022-10-16T04:18:13;99719.04;;;4.75;73.52
44351;BME280;62766;62.622;17.912;2022-10-16T04:20:42;99726.19;;;4.82;73.60
44351;BME280;62766;62.622;17.912;2022-10-16T04:23:10;99729.24;;;4.71;74.03
44351;BME280;62766;62.622;17.912;2022-10-16T04:25:40;99715.67;;;4.62;74.69
44351;BME280;62766;62.622;17.912;2022-10-16T04:28:09;99714.57;;;4.44;75.25
44351;BME280;62766;62.622;17.912;2022-10-16T04:30:37;99712.19;;;4.66;75.99
44351;BME280;62766;62.622;17.912;2022-10-16T04:33:05;99709.80;;;4.64;76.36
44351;BME280;62766;62.622;17.912;2022-10-16T04:35:34;99705.25;;;4.70;76.27
44351;BME280;62766;62.622;17.912;2022-10-16T04:38:02;99691.53;;;4.75;76.05
44351;BME280;62766;62.622;17.912;2022-10-16T04:40:30;99688.09;;;4.90;76.22
44351;BME280;62766;62.622;17.912;2022-10-16T04:42:59;99685.97;;;4.88;76.61
44351;BME280;62766;62.622;17.912;2022-10-16T04:45:27;99685.45;;;5.05;76.62
44351;BME280;62766;62.622;17.912;2022-10-16T04:47:56;99675.35;;;5.06;76.40
44351;BME280;62766;62.622;17.912;2022-10-16T04:50:26;99682.02;;;5.12;76.34
44351;BME280;62766;62.622;17.912;2022-10-16T04:52:54;99683.22;;;5.22;76.41
44351;BME280;62766;62.622;17.912;2022-10-16T04:55:22;99683.39;;;5.16;76.55
44351;BME280;62766;62.622;17.912;2022-10-16T04:57:50;99679.65;;;5.29;76.79
44351;BME280;62766;62.622;17.912;2022-10-16T05:00:19;99664.71;;;5.37;76.89
44351;BME280;62766;62.622;17.912;2022-10-16T05:02:49;99648.81;;;5.32;76.74
44351;BME280;62766;62.622;17.912;2022-10-16T05:05:17;99629.54;;;5.36;77.02
44351;BME280;62766;62.622;17.912;2022-10-16T05:07:46;99618.82;;;5.38;77.68
44351;BME280;62766;62.622;17.912;2022-10-16T05:10:14;99618.87;;;5.43;78.81
44351;BME280;62766;62.622;17.912;2022-10-16T05:12:42;99609.99;;;5.54;79.71
44351;BME280;62766;62.622;17.912;2022-10-16T05:15:11;99606.99;;;5.65;80.18
44351;BME280;62766;62.622;17.912;2022-10-16T05:17:40;99607.59;;;5.70;80.64
44351;BME280;62766;62.622;17.912;2022-10-16T05:20:09;99601.21;;;5.75;80.83
44351;BME280;62766;62.622;17.912;2022-10-16T05:22:38;99603.97;;;5.96;80.59
44351;BME280;62766;62.622;17.912;2022-10-16T05:25:06;99599.23;;;5.90;80.83
44351;BME280;62766;62.622;17.912;2022-10-16T05:27:34;99603.31;;;5.98;81.31
44351;BME280;62766;62.622;17.912;2022-10-16T05:30:03;99594.19;;;5.91;81.99
44351;BME280;62766;62.622;17.912;2022-10-16T05:32:32;99593.88;;;6.11;81.82
44351;BME280;62766;62.622;17.912;2022-10-16T05:35:01;99591.72;;;6.15;85.74
44351;BME280;62766;62.622;17.912;2022-10-16T05:37:29;99582.86;;;6.38;86.77
44351;BME280;62766;62.622;17.912;2022-10-16T05:39:57;99580.06;;;6.52;85.77
44351;BME280;62766;62.622;17.912;2022-10-16T05:42:25;99569.23;;;6.70;86.02
44351;BME280;62766;62.622;17.912;2022-10-16T05:44:54;99581.17;;;6.74;86.23
44351;BME280;62766;62.622;17.912;2022-10-16T05:47:22;99569.00;;;7.01;86.47
44351;BME280;62766;62.622;17.912;2022-10-16T05:49:50;99545.91;;;7.17;85.95
44351;BME280;62766;62.622;17.912;2022-10-16T05:52:19;99551.85;;;7.20;88.33
44351;BME280;62766;62.622;17.912;2022-10-16T05:54:47;99563.38;;;7.20;87.04
44351;BME280;62766;62.622;17.912;2022-10-16T05:57:15;99541.63;;;7.29;87.67
44351;BME280;62766;62.622;17.912;2022-10-16T05:59:44;99543.13;;;7.32;87.80
44351;BME280;62766;62.622;17.912;2022-10-16T06:02:13;99537.61;;;7.52;87.75
44351;BME280;62766;62.622;17.912;2022-10-16T06:04:42;99533.01;;;7.49;89.41
44351;BME280;62766;62.622;17.912;2022-10-16T06:07:10;99529.03;;;7.73;89.63
44351;BME280;62766;62.622;17.912;2022-10-16T06:09:39;99523.95;;;7.77;89.64
44351;BME280;62766;62.622;17.912;2022-10-16T06:12:08;99516.74;;;7.74;89.86
44351;BME280;62766;62.622;17.912;2022-10-16T06:14:37;99521.42;;;7.98;90.37
44351;BME280;62766;62.622;17.912;2022-10-16T06:17:05;99521.60;;;8.03;90.89
44351;BME280;62766;62.622;17.912;2022-10-16T06:19:33;99516.70;;;8.10;91.54
44351;BME280;62766;62.622;17.912;2022-10-16T06:22:02;99513.42;;;8.15;91.78
44351;BME280;62766;62.622;17.912;2022-10-16T06:24:30;99510.47;;;8.17;91.53
44351;BME280;62766;62.622;17.912;2022-10-16T06:26:58;99506.27;;;8.27;91.18
44351;BME280;62766;62.622;17.912;2022-10-16T06:29:26;99501.27;;;8.31;90.94
44351;BME280;62766;62.622;17.912;2022-10-16T06:31:55;99501.15;;;8.39;91.09
44351;BME280;62766;62.622;17.912;2022-10-16T06:34:23;99500.65;;;8.46;90.97
44351;BME280;62766;62.622;17.912;2022-10-16T06:36:51;99499.53;;;8.42;90.89
44351;BME280;62766;62.622;17.912;2022-10-16T06:39:20;99498.00;;;8.47;90.93
44351;BME280;62766;62.622;17.912;2022-10-16T06:41:48;99495.51;;;8.60;91.08
44351;BME280;62766;62.622;17.912;2022-10-16T06:44:17;99498.43;;;8.62;90.86
44351;BME280;62766;62.622;17.912;2022-10-16T06:46:46;99500.38;;;8.79;90.90
44351;BME280;62766;62.622;17.912;2022-10-16T06:49:14;99501.90;;;8.84;90.82
44351;BME280;62766;62.622;17.912;2022-10-16T06:51:43;99498.18;;;8.94;90.98
44351;BME280;62766;62.622;17.912;2022-10-16T06:54:11;99492.38;;;8.91;90.56
44351;BME280;62766;62.622;17.912;2022-10-16T06:56:40;99495.96;;;9.01;90.79
44351;BME280;62766;62.622;17.912;2022-10-16T06:59:09;99493.92;;;9.02;90.76
44351;BME280;62766;62.622;17.912;2022-10-16T07:01:37;99500.99;;;9.08;90.87
44351;BME280;62766;62.622;17.912;2022-10-16T07:04:06;99504.90;;;9.26;90.50
44351;BME280;62766;62.622;17.912;2022-10-16T07:06:34;99508.70;;;9.25;90.21
44351;BME280;62766;62.622;17.912;2022-10-16T07:09:04;99505.65;;;9.28;90.06
44351;BME280;62766;62.622;17.912;2022-10-16T07:11:33;99506.67;;;9.35;90.03
44351;BME280;62766;62.622;17.912;2022-10-16T07:14:03;99507.12;;;9.35;89.40
44351;BME280;62766;62.622;17.912;2022-10-16T07:16:32;99512.32;;;9.41;89.08
44351;BME280;62766;62.622;17.912;2022-10-16T07:19:02;99506.92;;;9.44;88.85
44351;BME280;62766;62.622;17.912;2022-10-16T07:21:32;99510.15;;;9.47;88.69
44351;BME280;62766;62.622;17.912;2022-10-16T07:24:01;99514.93;;;9.49;88.28
44351;BME280;62766;62.622;17.912;2022-10-16T07:26:30;99514.36;;;9.57;88.02
44351;BME280;62766;62.622;17.912;2022-10-16T07:28:59;99514.64;;;9.45;87.70
44351;BME280;62766;62.622;17.912;2022-10-16T07:31:27;99512.74;;;9.55;87.67
44351;BME280;62766;62.622;17.912;2022-10-16T07:33:58;99506.82;;;9.61;87.43
44351;BME280;62766;62.622;17.912;2022-10-16T07:36:27;99508.25;;;9.59;86.64
44351;BME280;62766;62.622;17.912;2022-10-16T07:38:55;99508.52;;;9.64;86.43
44351;BME280;62766;62.622;17.912;2022-10-16T07:41:24;99506.66;;;9.76;86.01
44351;BME280;62766;62.622;17.912;2022-10-16T07:43:53;99507.75;;;9.80;85.41
44351;BME280;62766;62.622;17.912;2022-10-16T07:46:22;99508.40;;;9.83;84.77
44351;BME280;62766;62.622;17.912;2022-10-16T07:48:52;99511.79;;;9.74;84.12
44351;BME280;62766;62.622;17.912;2022-10-16T07:51:22;99515.57;;;9.84;84.08
44351;BME280;62766;62.622;17.912;2022-10-16T07:53:51;99515.51;;;9.84;84.07
44351;BME280;62766;62.622;17.912;2022-10-16T07:56:21;99516.76;;;9.90;83.59
44351;BME280;62766;62.622;17.912;2022-10-16T07:58:49;99514.12;;;9.80;83.13
44351;BME280;62766;62.622;17.912;2022-10-16T08:01:19;99518.68;;;9.85;82.91
44351;BME280;62766;62.622;17.912;2022-10-16T08:03:49;99517.73;;;9.75;83.04
44351;BME280;62766;62.622;17.912;2022-10-16T08:06:20;99519.04;;;9.89;82.93
44351;BME280;62766;62.622;17.912;2022-10-16T08:08:49;99522.45;;;9.97;82.64
44351;BME280;62766;62.622;17.912;2022-10-16T08:11:18;99522.57;;;9.90;82.22
44351;BME280;62766;62.622;17.912;2022-10-16T08:13:46;99526.22;;;9.72;82.00
44351;BME280;62766;62.622;17.912;2022-10-16T08:16:14;99529.15;;;9.87;82.00
44351;BME280;62766;62.622;17.912;2022-10-16T08:18:42;99529.20;;;9.80;81.99
44351;BME280;62766;62.622;17.912;2022-10-16T08:21:13;99525.44;;;9.72;81.58
44351;BME280;62766;62.622;17.912;2022-10-16T08:23:42;99532.74;;;9.76;81.66
44351;BME280;62766;62.622;17.912;2022-10-16T08:26:11;99532.81;;;9.71;81.66
44351;BME280;62766;62.622;17.912;2022-10-16T08:28:41;99538.54;;;9.73;82.18
44351;BME280;62766;62.622;17.912;2022-10-16T08:31:13;99541.60;;;9.66;82.15
44351;BME280;62766;62.622;17.912;2022-10-16T08:33:44;99544.65;;;9.73;82.18
44351;BME280;62766;62.622;17.912;2022-10-16T08:36:14;99539.43;;;9.80;82.30
44351;BME280;62766;62.622;17.912;2022-10-16T08:38:43;99537.98;;;9.86;82.20
44351;BME280;62766;62.622;17.912;2022-10-16T08:41:23;99541.29;;;9.84;82.25
44351;BME280;62766;62.622;17.912;2022-10-16T08:44:20;99539.94;;;9.76;82.18
44351;BME280;62766;62.622;17.912;2022-10-16T08:47:03;99543.43;;;9.91;82.05
44351;BME280;62766;62.622;17.912;2022-10-16T08:49:42;99542.45;;;9.68;81.55
44351;BME280;62766;62.622;17.912;2022-10-16T08:52:13;99542.56;;;9.84;81.84
44351;BME280;62766;62.622;17.912;2022-10-16T08:54:44;99545.37;;;9.89;81.37
44351;BME280;62766;62.622;17.912;2022-10-16T08:57:17;99541.04;;;10.01;80.84
44351;BME280;62766;62.622;17.912;2022-10-16T08:59:47;99537.24;;;10.14;80.88
44351;BME280;62766;62.622;17.912;2022-10-16T09:02:24;99537.90;;;10.35;80.02
44351;BME280;62766;62.622;17.912;2022-10-16T09:05:05;99537.85;;;10.33;79.92
44351;BME280;62766;62.622;17.912;2022-10-16T09:07:39;99535.67;;;10.42;79.79
44351;BME280;62766;62.622;17.912;2022-10-16T09:10:21;99530.82;;;10.62;79.59
44351;BME280;62766;62.622;17.912;2022-10-16T09:12:59;99531.83;;;10.67;78.87
44351;BME280;62766;62.622;17.912;2022-10-16T09:15:35;99534.87;;;10.54;78.39
44351;BME280;62766;62.622;17.912;2022-10-16T09:18:19;99537.59;;;10.57;77.81
44351;BME280;62766;62.622;17.912;2022-10-16T09:20:53;99540.77;;;10.64;77.43
44351;BME280;62766;62.622;17.912;2022-10-16T09:23:27;99542.95;;;10.50;77.30
44351;BME280;62766;62.622;17.912;2022-10-16T09:25:56;99547.13;;;10.45;77.82
44351;BME280;62766;62.622;17.912;2022-10-16T09:28:25;99545.31;;;10.46;77.92
44351;BME280;62766;62.622;17.912;2022-10-16T09:30:55;99544.49;;;10.43;78.01
44351;BME280;62766;62.622;17.912;2022-10-16T09:33:28;99544.69;;;10.58;77.73
44351;BME280;62766;62.622;17.912;2022-10-16T09:35:59;99548.51;;;10.52;78.03
44351;BME280;62766;62.622;17.912;2022-10-16T09:38:30;99546.35;;;10.63;77.74
44351;BME280;62766;62.622;17.912;2022-10-16T09:41:02;99544.36;;;10.78;77.83
44351;BME280;62766;62.622;17.912;2022-10-16T09:43:35;99539.74;;;10.56;77.40
44351;BME280;62766;62.622;17.912;2022-10-16T09:46:08;99542.53;;;10.68;77.27
44351;BME280;62766;62.622;17.912;2022-10-16T09:48:49;99538.87;;;10.72;77.49
44351;BME280;62766;62.622;17.912;2022-10-16T09:51:21;99543.70;;;10.73;76.86
44351;BME280;62766;62.622;17.912;2022-10-16T09:53:55;99541.67;;;10.83;76.99
44351;BME280;62766;62.622;17.912;2022-10-16T09:56:26;99541.81;;;10.83;76.92
44351;BME280;62766;62.622;17.912;2022-10-16T09:58:57;99537.62;;;10.87;77.01
44351;BME280;62766;62.622;17.912;2022-10-16T10:03:33;99534.78;;;10.91;76.10
44351;BME280;62766;62.622;17.912;2022-10-16T10:06:15;99537.38;;;11.13;76.00
44351;BME280;62766;62.622;17.912;2022-10-16T10:08:54;99532.73;;;11.16;75.55
44351;BME280;62766;62.622;17.912;2022-10-16T10:11:56;99535.22;;;11.31;75.26
44351;BME280;62766;62.622;17.912;2022-10-16T10:14:27;99533.67;;;11.29;74.50
44351;BME280;62766;62.622;17.912;2022-10-16T10:17:15;99540.73;;;11.13;74.03
44351;BME280;62766;62.622;17.912;2022-10-16T10:19:48;99546.40;;;10.97;74.13
44351;BME280;62766;62.622;17.912;2022-10-16T10:22:24;99547.08;;;11.02;74.00
44351;BME280;62766;62.622;17.912;2022-10-16T10:25:12;99550.56;;;11.20;74.20
44351;BME280;62766;62.622;17.912;2022-10-16T10:27:52;99543.03;;;11.15;73.56
44351;BME280;62766;62.622;17.912;2022-10-16T10:30:29;99550.89;;;11.27;73.35
44351;BME280;62766;62.622;17.912;2022-10-16T10:33:13;99548.63;;;11.44;73.18
44351;BME280;62766;62.622;17.912;2022-10-16T10:35:52;99551.47;;;11.41;72.50
44351;BME280;62766;62.622;17.912;2022-10-16T10:38:39;99551.38;;;11.40;72.21
44351;BME280;62766;62.622;17.912;2022-10-16T10:42:26;99562.23;;;11.30;71.21
44351;BME280;62766;62.622;17.912;2022-10-16T10:45:12;99561.23;;;11.28;71.68
44351;BME280;62766;62.622;17.912;2022-10-16T10:47:49;99565.04;;;11.24;70.84
44351;BME280;62766;62.622;17.912;2022-10-16T10:50:25;99569.55;;;11.27;71.12
44351;BME280;62766;62.622;17.912;2022-10-16T10:53:02;99574.19;;;11.41;71.33
44351;BME280;62766;62.622;17.912;2022-10-16T10:55:39;99576.93;;;11.57;69.94
44351;BME280;62766;62.622;17.912;2022-10-16T10:58:33;99578.10;;;11.55;69.48
44351;BME280;62766;62.622;17.912;2022-10-16T11:01:08;99576.92;;;11.53;71.04
44351;BME280;62766;62.622;17.912;2022-10-16T11:03:53;99583.53;;;11.65;69.87
44351;BME280;62766;62.622;17.912;2022-10-16T11:06:29;99580.29;;;11.64;69.49
44351;BME280;62766;62.622;17.912;2022-10-16T11:09:01;99583.34;;;11.72;67.69
44351;BME280;62766;62.622;17.912;2022-10-16T11:11:35;99575.67;;;11.50;66.59
44351;BME280;62766;62.622;17.912;2022-10-16T11:14:09;99581.27;;;11.49;66.25
44351;BME280;62766;62.622;17.912;2022-10-16T11:16:47;99578.18;;;11.35;65.41
44351;BME280;62766;62.622;17.912;2022-10-16T11:19:26;99574.40;;;11.20;66.42
44351;BME280;62766;62.622;17.912;2022-10-16T11:22:02;99578.31;;;11.14;67.38
44351;BME280;62766;62.622;17.912;2022-10-16T11:24:40;99576.12;;;11.28;66.48
44351;BME280;62766;62.622;17.912;2022-10-16T11:27:15;99576.41;;;11.36;66.64
44351;BME280;62766;62.622;17.912;2022-10-16T11:29:50;99570.62;;;11.13;65.63
44351;BME280;62766;62.622;17.912;2022-10-16T11:32:27;99574.25;;;11.25;65.69
44351;BME280;62766;62.622;17.912;2022-10-16T11:35:02;99573.00;;;11.20;65.06
44351;BME280;62766;62.622;17.912;2022-10-16T11:37:38;99569.79;;;11.35;63.64
44351;BME280;62766;62.622;17.912;2022-10-16T11:40:23;99566.78;;;11.33;61.84
44351;BME280;62766;62.622;17.912;2022-10-16T11:42:59;99567.17;;;11.42;61.73
44351;BME280;62766;62.622;17.912;2022-10-16T11:45:34;99561.29;;;11.64;61.15
44351;BME280;62766;62.622;17.912;2022-10-16T11:48:16;99571.67;;;11.57;61.29
44351;BME280;62766;62.622;17.912;2022-10-16T11:50:52;99575.59;;;11.28;60.79
44351;BME280;62766;62.622;17.912;2022-10-16T11:53:34;99578.50;;;11.15;61.45
44351;BME280;62766;62.622;17.912;2022-10-16T11:56:04;99578.73;;;11.08;61.84
44351;BME280;62766;62.622;17.912;2022-10-16T11:58:37;99582.83;;;10.87;60.96
44351;BME280;62766;62.622;17.912;2022-10-16T12:01:18;99583.13;;;10.91;61.63
44351;BME280;62766;62.622;17.912;2022-10-16T12:04:01;99583.19;;;10.80;62.06
44351;BME280;62766;62.622;17.912;2022-10-16T12:06:34;99576.88;;;10.85;61.91
44351;BME280;62766;62.622;17.912;2022-10-16T12:09:15;99582.56;;;10.88;62.67
44351;BME280;62766;62.622;17.912;2022-10-16T12:11:48;99588.58;;;10.89;63.27
44351;BME280;62766;62.622;17.912;2022-10-16T12:14:21;99587.37;;;10.92;62.93
44351;BME280;62766;62.622;17.912;2022-10-16T12:16:52;99590.63;;;10.86;63.06
44351;BME280;62766;62.622;17.912;2022-10-16T12:19:21;99593.84;;;11.05;62.29
44351;BME280;62766;62.622;17.912;2022-10-16T12:21:51;99583.71;;;11.18;61.07
44351;BME280;62766;62.622;17.912;2022-10-16T12:24:29;99581.83;;;11.33;60.22
44351;BME280;62766;62.622;17.912;2022-10-16T12:26:59;99580.58;;;11.44;58.45
44351;BME280;62766;62.622;17.912;2022-10-16T12:29:33;99580.27;;;11.20;58.88
44351;BME280;62766;62.622;17.912;2022-10-16T12:32:04;99577.23;;;11.19;57.37
44351;BME280;62766;62.622;17.912;2022-10-16T12:34:39;99574.99;;;11.02;56.85
44351;BME280;62766;62.622;17.912;2022-10-16T12:37:14;99576.65;;;10.72;57.21
44351;BME280;62766;62.622;17.912;2022-10-16T12:39:42;99576.55;;;10.75;57.14
44351;BME280;62766;62.622;17.912;2022-10-16T12:42:34;99575.38;;;10.75;57.86
44351;BME280;62766;62.622;17.912;2022-10-16T12:45:24;99572.95;;;10.77;57.44
44351;BME280;62766;62.622;17.912;2022-10-16T12:47:54;99574.61;;;10.78;57.63
44351;BME280;62766;62.622;17.912;2022-10-16T12:50:29;99578.25;;;10.72;57.55
44351;BME280;62766;62.622;17.912;2022-10-16T12:52:58;99574.92;;;10.83;57.45
44351;BME280;62766;62.622;17.912;2022-10-16T12:55:34;99578.68;;;10.89;57.26
44351;BME280;62766;62.622;17.912;2022-10-16T12:58:12;99582.90;;;10.85;57.07
44351;BME280;62766;62.622;17.912;2022-10-16T13:00:46;99585.34;;;10.87;56.93
44351;BME280;62766;62.622;17.912;2022-10-16T13:03:31;99587.02;;;10.85;57.43
44351;BME280;62766;62.622;17.912;2022-10-16T13:06:17;99592.04;;;10.99;57.74
44351;BME280;62766;62.622;17.912;2022-10-16T13:09:00;99592.37;;;10.94;56.53
44351;BME280;62766;62.622;17.912;2022-10-16T13:11:48;99592.72;;;10.97;56.92
44351;BME280;62766;62.622;17.912;2022-10-16T13:14:36;99591.84;;;10.91;56.93
44351;BME280;62766;62.622;17.912;2022-10-16T13:17:15;99591.66;;;10.98;56.84
44351;BME280;62766;62.622;17.912;2022-10-16T13:20:00;99588.45;;;11.04;56.78
44351;BME280;62766;62.622;17.912;2022-10-16T13:22:39;99589.53;;;10.96;56.55
44351;BME280;62766;62.622;17.912;2022-10-16T13:25:21;99589.78;;;11.06;56.62
44351;BME280;62766;62.622;17.912;2022-10-16T13:27:54;99589.53;;;10.96;56.12